Temp     Hi    Low   Out    Dew  Wind  Wind   Wind    Hi    Hi   Wind   Heat    THW   THSW                Rain  Solar   Solar Hi Solar   UV    UV    Hi     Heat    Cool    In     In    In     In     In   In Air          Wind  Wind    ISS   Arc.
  Date    Time     Out   Temp   Temp   Hum    Pt. Speed   Dir    Run Speed   Dir  Chill  Index  Index  Index   Bar    Rain  Rate   Rad.  Energy    Rad.  Index  Dose   UV     D-D     D-D    Temp   Hum    Dew   Heat    EMC Density     ET   Samp   Tx   Recept  Int.
------------------------------------------------------------------------------------------------------------------------------------------------------------------------------------------------------------------------------------------------------------------------
 8/19/18 12:30a   70.8   71.9   70.8    41   45.9   0.0   ---   0.00   0.0   ---   70.8   68.4   68.4   64.0  29.924  0.00  0.00     0     0.00      0     0.0  0.00   0.0   0.000   0.121   79.3    31   46.0   77.6   6.16  .0729    0.000   680    2    100.0   30 
 8/19/18  1:00a   70.2   70.8   70.2    44   47.3   0.0     W   0.00   1.0     W   70.2   68.0   68.0   63.7  29.916  0.00  0.00     0     0.00      0     0.0  0.00   0.0   0.000   0.108   79.2    32   46.8   77.6   6.37  .0728    0.002   685    2    100.0   30 
 8/19/18  1:30a   70.9   71.2   70.2    43   47.3   0.0   WNW   0.00   8.0   WNW   70.9   68.8   68.8   64.5  29.914  0.00  0.00     0     0.00      0     0.0  0.00   0.0   0.000   0.123   79.2    32   46.8   77.6   6.37  .0728    0.000   673    2    100.0   30 
 8/19/18  2:00a   70.1   70.9   70.1    45   47.8   0.0   ---   0.00   0.0   ---   70.1   67.9   67.9   63.6  29.913  0.00  0.00     0     0.00      0     0.0  0.00   0.0   0.000   0.106   78.8    32   46.4   77.3   6.37  .0729    0.002   685    2    100.0   30 
 8/19/18  2:30a   70.9   70.9   70.1    47   49.7   0.0   ---   0.00   0.0   ---   70.9   69.2   69.2   65.0  29.902  0.00  0.00     0     0.00      0     0.0  0.00   0.0   0.000   0.123   79.0    33   47.4   77.6   6.55  .0728    0.000   681    2    100.0   30 
 8/19/18  3:00a   71.1   71.3   70.9    46   49.3   0.0   WNW   0.00   1.0   WNW   71.1   69.3   69.3   65.1  29.900  0.00  0.00     0     0.00      0     0.0  0.00   0.0   0.000   0.127   79.0    33   47.4   77.6   6.55  .0728    0.002   674    2    100.0   30 
 8/19/18  3:30a   69.5   71.2   69.5    46   47.8   0.0   WNW   0.00   4.0   WNW   69.5   67.6   67.6   63.3  29.894  0.00  0.00     0     0.00      0     0.0  0.00   0.0   0.000   0.094   79.0    33   47.4   77.6   6.55  .0728    0.000   684    2    100.0   30 
 8/19/18  4:00a   68.0   69.5   68.0    46   46.4   0.0   WNW   0.00   5.0   WNW   68.0   66.3   66.3   61.9  29.889  0.00  0.00     0     0.00      0     0.0  0.00   0.0   0.000   0.063   79.0    34   48.2   77.7   6.67  .0728    0.000   674    2    100.0   30 
 8/19/18  4:30a   66.8   68.0   66.8    44   44.2   0.0   ---   0.00   0.0   ---   66.8   64.7   64.7   60.2  29.891  0.00  0.00     0     0.00      0     0.0  0.00   0.0   0.000   0.038   78.8    33   47.3   77.4   6.55  .0728    0.002   679    2    100.0   30 
 8/19/18  5:00a   65.8   66.8   65.8    46   44.4   0.0   WNW   0.00   1.0   WNW   65.8   63.8   63.8   59.3  29.889  0.00  0.00     0     0.00      0     0.0  0.00   0.0   0.000   0.017   78.6    33   47.1   77.2   6.55  .0728    0.002   684    2    100.0   30 
 8/19/18  5:30a   64.5   65.8   64.5    49   44.9   0.0   ---   0.00   0.0   ---   64.5   62.7   62.7   58.2  29.891  0.00  0.00     0     0.00      0     0.0  0.00   0.0   0.010   0.000   78.6    33   47.1   77.2   6.55  .0729    0.000   672    2    100.0   30 
 8/19/18  6:00a   63.7   64.5   63.7    45   41.9   0.0   ---   0.00   0.0   ---   63.7   61.5   61.5   56.9  29.896  0.00  0.00     0     0.00      0     0.0  0.00   0.0   0.027   0.000   78.4    33   46.9   77.0   6.55  .0729    0.002   683    2    100.0   30 
 8/19/18  6:30a   62.8   63.7   62.8    46   41.7   0.0   ---   0.00   0.0   ---   62.8   60.6   60.6   56.0  29.899  0.00  0.00     1     0.04      7     0.0  0.00   0.0   0.046   0.000   78.2    33   46.7   76.8   6.55  .0729    0.000   680    2    100.0   30 
 8/19/18  7:00a   62.3   62.8   62.3    47   41.8   0.0   ---   0.00   0.0   ---   62.3   60.2   60.2   57.8  29.907  0.00  0.00    12     0.52     16     0.0  0.00   0.0   0.056   0.000   78.2    33   46.7   76.8   6.55  .0730    0.001   671    2    100.0   30 
 8/19/18  7:30a   62.7   62.7   62.2    50   43.8   0.0   ---   0.00   0.0   ---   62.7   60.8   60.8   58.8  29.909  0.00  0.00    20     0.86     25     0.0  0.00   0.0   0.048   0.000   78.2    33   46.7   76.8   6.55  .0730    0.000   684    2    100.0   30 
 8/19/18  8:00a   65.8   65.8   62.7    48   45.6   0.0   WNW   0.00   3.0   WNW   65.8   64.0   64.0   66.2  29.907  0.00  0.00   134     5.76    225     0.0  0.00   0.0   0.000   0.017   78.4    33   46.9   77.0   6.55  .0729    0.002   681    2    100.0   30 
 8/19/18  8:30a   70.4   70.4   65.8    39   44.3   0.0   ---   0.00   0.0   ---   70.4   67.7   67.7   73.2  29.908  0.00  0.00   272    11.70    316     0.0  0.00   0.0   0.000   0.113   78.8    32   46.4   77.3   6.37  .0729    0.000   675    2    100.0   30 
 8/19/18  9:00a   77.1   77.1   70.5    24   37.5   0.0   WNW   0.00   5.0   WNW   77.1   75.7   75.7   82.4  29.910  0.00  0.00   369    15.87    417     0.5  0.08   1.0   0.000   0.252   79.0    31   45.8   77.3   6.17  .0729    0.000   685    2    100.0   30 
 8/19/18  9:30a   79.6   79.6   77.1    23   38.5   1.0   WNW   0.50   6.0   WNW   79.6   77.0   77.0   84.8  29.908  0.00  0.00   464    19.95    508     1.4  0.22   1.7   0.000   0.304   79.5    30   45.3   77.6   6.05  .0728    0.008   674    2    100.0   30 
 8/19/18 10:00a   81.2   81.2   79.6    23   39.9   1.0   WNW   0.50   6.0   WNW   81.2   78.4   78.4   86.9  29.911  0.00  0.00   553    23.78    594     2.2  0.35   2.6   0.000   0.337   80.1    30   45.9   78.1   6.05  .0727    0.014   680    2    100.0   30 
 8/19/18 10:30a   82.5   82.5   81.2    23   41.0   2.0    NW   1.00   9.0    NW   82.5   79.8   79.8   88.9  29.909  0.00  0.00   635    27.31    671     3.1  0.50   3.5   0.000   0.365   81.0    30   46.6   79.0   6.05  .0726    0.000   683    2    100.0   30 
 8/19/18 11:00a   84.1   84.1   82.5    23   42.3   6.0   NNW   3.00  13.0   NNW   84.1   81.4   81.4   91.0  29.903  0.00  0.00   707    30.40    740     4.0  0.64   4.5   0.000   0.398   81.2    28   45.0   79.0   5.73  .0726    0.021   672    2    100.0   30 
 8/19/18 11:30a   84.5   84.5   83.8    23   42.6   9.0   NNW   4.50  17.0     N   83.9   81.7   81.1   90.0  29.895  0.00  0.00   763    32.81    784     4.9  0.79   5.2   0.000   0.406   81.4    28   45.2   79.2   5.72  .0725    0.000   684    2    100.0   30 
 8/19/18 12:00p   86.4   86.4   84.5    20   40.6   9.0   NNW   4.50  16.0   NNW   85.9   83.2   82.7   91.7  29.884  0.00  0.00   804    34.58    821     5.5  0.88   5.7   0.000   0.446   82.1    27   44.8   79.8   5.55  .0724    0.028   677    2    100.0   30 
 8/19/18 12:30p   87.3   87.8   86.4    19   40.0   8.0   NNW   4.00  19.0     N   87.2   83.9   83.8   93.2  29.872  0.00  0.00   835    35.91    846     5.9  0.95   6.1   0.000   0.465   83.1    25   43.6   80.5   5.29  .0723    0.000   615    2     92.2   30 
 8/19/18  1:00p   87.9   87.9   87.2    19   40.5   9.0   NNW   4.50  20.0   NNW   87.6   84.3   84.0   93.0  29.860  0.00  0.00   854    36.73    860     6.2  1.00   6.3   0.000   0.477   83.9    26   45.3   81.5   5.37  .0721    0.030   685    2    100.0   30 
 8/19/18  1:30p   87.8   88.5   87.8    18   39.0  11.0   NNW   5.50  19.0   NNW   87.2   84.1   83.5   91.8  29.852  0.00  0.00   858    36.90    861     6.2  1.00   6.3   0.000   0.475   84.7    25   45.0   82.1   5.26  .0720    0.000   673    2    100.0   30 
 8/19/18  2:00p   88.5   88.7   87.6    16   36.6  12.0   NNW   6.00  19.0     N   87.9   84.3   83.7   91.5  29.848  0.00  0.00   844    36.30    853     5.9  0.95   6.1   0.000   0.490   85.5    24   44.6   82.8   5.04  .0719    0.033   685    2    100.0   30 
 8/19/18  2:30p   88.6   88.9   88.1    16   36.7  11.0   NNW   5.50  20.0   NNW   88.1   84.4   83.9   91.9  29.841  0.00  0.00   816    35.09    831     5.4  0.87   5.7   0.000   0.492   86.1    23   44.0   83.3   4.85  .0718    0.000   678    2    100.0   30 
 8/19/18  3:00p   88.8   89.0   88.5    16   36.8  12.0   NNW   6.00  19.0   NNW   88.2   84.5   83.9   91.5  29.832  0.00  0.00   775    33.33    796     4.6  0.74   5.0   0.000   0.496   86.7    24   45.6   83.9   5.02  .0717    0.032   680    2    100.0   30 
 8/19/18  3:30p   88.9   89.2   88.4    16   36.9  12.0   NNW   6.00  20.0     N   88.4   84.5   84.0   91.5  29.822  0.00  0.00   717    30.84    745     3.8  0.61   4.2   0.000   0.498   87.1    23   44.8   84.1   4.85  .0716    0.000   685    2    100.0   30 
 8/19/18  4:00p   89.4   89.5   88.8    16   37.3  12.0   NNW   6.00  21.0   NNW   89.0   85.2   84.8   92.2  29.813  0.00  0.00   650    27.95    680     2.9  0.47   3.3   0.000   0.508   87.3    23   45.0   84.3   4.85  .0716    0.029   670    2    100.0   30 
 8/19/18  4:30p   88.9   89.6   88.9    16   36.9  12.0   NNW   6.00  22.0    NW   88.4   84.5   84.0   91.1  29.801  0.00  0.00   574    24.69    612     2.1  0.34   2.4   0.000   0.498   87.3    24   46.1   84.4   5.00  .0715    0.000   684    2    100.0   30 
 8/19/18  5:00p   88.3   89.2   88.3    16   36.4  13.0   NNW   6.50  20.0   NNW   87.5   84.2   83.4   89.9  29.798  0.00  0.00   489    21.03    534     1.3  0.21   1.7   0.000   0.485   86.5    25   46.5   83.9   5.22  .0716    0.026   684    2    100.0   30 
 8/19/18  5:30p   88.7   88.7   88.0    17   38.3  12.0   NNW   6.00  19.0   NNW   88.1   84.6   84.0   90.2  29.797  0.00  0.00   391    16.82    439     0.7  0.11   1.0   0.000   0.494   85.9    26   47.0   83.5   5.35  .0717    0.000   673    2    100.0   30 
 8/19/18  6:00p   87.7   88.8   87.7    18   38.9  11.0   NNW   5.50  18.0   NNW   87.0   84.1   83.4   88.3  29.797  0.00  0.00   295    12.69    339     0.0  0.00   0.0   0.000   0.473   85.5    26   46.7   83.1   5.35  .0717    0.020   684    2    100.0   30 
 8/19/18  6:30p   87.0   87.7   87.0    19   39.7   7.0    NW   3.50  14.0    NW   87.0   83.7   83.7   87.4  29.796  0.00  0.00   204     8.77    246     0.0  0.00   0.0   0.000   0.458   85.1    26   46.4   82.7   5.35  .0718    0.000   677    2    100.0   30 
 8/19/18  7:00p   84.7   87.0   84.7    20   39.2   6.0   NNW   3.00  13.0    NW   84.7   81.6   81.6   78.8  29.800  0.00  0.00    87     3.74    155     0.0  0.00   0.0   0.000   0.410   84.5    27   46.8   82.3   5.55  .0718    0.010   678    2    100.0   30 
 8/19/18  7:30p   82.8   84.7   82.7    22   40.1   1.0    NW   0.50  10.0   NNW   82.8   80.0   80.0   75.7  29.808  0.00  0.00    14     0.60     19     0.0  0.00   0.0   0.000   0.371   84.1    27   46.5   81.9   5.55  .0719    0.000   682    2    100.0   30 
 8/19/18  8:00p   80.6   82.7   80.6    24   40.5   1.0    NW   0.50   5.0    NW   80.6   77.9   77.9   73.3  29.810  0.00  0.00     1     0.04      5     0.0  0.00   0.0   0.000   0.325   83.9    25   44.3   81.4   5.27  .0720    0.002   674    2    100.0   30 
 8/19/18  8:30p   78.8   80.6   78.8    25   40.0   2.0   WNW   1.00   8.0   WNW   78.8   76.6   76.6   71.9  29.813  0.00  0.00     0     0.00      0     0.0  0.00   0.0   0.000   0.288   83.5    25   44.0   80.9   5.28  .0721    0.000   682    2    100.0   30 
 8/19/18  9:00p   78.0   78.8   78.0    25   39.3   1.0   WNW   0.50   6.0   WNW   78.0   76.2   76.2   71.5  29.816  0.00  0.00     0     0.00      0     0.0  0.00   0.0   0.000   0.271   82.7    24   42.2   80.0   5.10  .0723    0.004   681    2    100.0   30 
 8/19/18  9:30p   76.9   78.0   76.9    26   39.4   0.0   WNW   0.00   5.0   WNW   76.9   75.6   75.6   70.9  29.820  0.00  0.00     0     0.00      0     0.0  0.00   0.0   0.000   0.248   82.7    24   42.2   80.0   5.10  .0723    0.000   669    2    100.0   30 
 8/19/18 10:00p   74.9   76.9   74.9    27   38.7   0.0   WNW   0.00   1.0   WNW   74.9   72.9   72.9   68.2  29.822  0.00  0.00     0     0.00      0     0.0  0.00   0.0   0.000   0.206   82.9    25   43.5   80.3   5.29  .0722    0.003   685    2    100.0   30 
 8/19/18 10:30p   73.0   74.9   73.0    29   38.9   0.0   ---   0.00   0.0   ---   73.0   70.6   70.6   65.9  29.826  0.00  0.00     0     0.00      0     0.0  0.00   0.0   0.000   0.167   82.7    24   42.2   80.0   5.10  .0723    0.000   681    2    100.0   30 
 8/19/18 11:00p   71.5   73.0   71.5    30   38.4   0.0   WNW   0.00   1.0   WNW   71.5   68.4   68.4   63.7  29.824  0.00  0.00     0     0.00      0     0.0  0.00   0.0   0.000   0.135   81.8    25   42.5   79.3   5.31  .0724    0.003   672    2    100.0   30 
 8/19/18 11:30p   70.5   71.5   70.5    31   38.4   0.0   ---   0.00   0.0   ---   70.5   67.1   67.1   62.4  29.826  0.00  0.00     0     0.00      0     0.0  0.00   0.0   0.000   0.115   80.8    25   41.7   78.2   5.33  .0725    0.000   683    2    100.0   30 
 8/20/18 12:00a   69.2   70.5   69.2    32   38.1   0.0   ---   0.00   0.0   ---   69.2   65.8   65.8   61.1  29.821  0.00  0.00     0     0.00      0     0.0  0.00   0.0   0.000   0.087   80.1    25   41.1   77.6   5.35  .0726    0.003   675    2    100.0   30 
 8/20/18 12:30a   68.9   69.2   68.8    32   37.8   0.0   WNW   0.00   4.0   WNW   68.9   65.5   65.5   60.7  29.825  0.00  0.00     0     0.00      0     0.0  0.00   0.0   0.000   0.081   79.2    26   41.3   77.0   5.45  .0728    0.000   676    2    100.0   30 
 8/20/18  1:00a   69.0   69.0   68.9    33   38.7   0.0   WNW   0.00   1.0   WNW   69.0   65.8   65.8   61.1  29.822  0.00  0.00     0     0.00      0     0.0  0.00   0.0   0.000   0.083   78.6    26   40.8   76.6   5.45  .0729    0.003   684    2    100.0   30 
 8/20/18  1:30a   68.1   69.0   68.1    34   38.7   0.0   WNW   0.00   1.0   WNW   68.1   65.0   65.0   60.3  29.820  0.00  0.00     0     0.00      0     0.0  0.00   0.0   0.000   0.065   78.0    26   40.3   76.2   5.45  .0729    0.000   672    2    100.0   30 
 8/20/18  2:00a   66.5   68.1   66.5    35   38.0   0.0   ---   0.00   0.0   ---   66.5   63.4   63.4   58.6  29.820  0.00  0.00     0     0.00      0     0.0  0.00   0.0   0.000   0.031   78.2    27   41.5   76.4   5.55  .0729    0.002   684    2    100.0   30 
 8/20/18  2:30a   65.4   66.5   65.3    37   38.4   0.0   ---   0.00   0.0   ---   65.4   62.5   62.5   57.8  29.817  0.00  0.00     0     0.00      0     0.0  0.00   0.0   0.000   0.008   78.0    27   41.3   76.3   5.55  .0729    0.000   685    2    100.0   30 
 8/20/18  3:00a   64.3   65.3   64.3    39   38.8   0.0   ---   0.00   0.0   ---   64.3   61.5   61.5   56.8  29.813  0.00  0.00     0     0.00      0     0.0  0.00   0.0   0.015   0.000   77.7    27   41.0   76.1   5.55  .0729    0.002   670    2    100.0   30